Time;durP1;ratioP1;P1;durP2;ratioP2;P2;SDS_P1;SDS_P2;PMS_P1;PMS_P2;Temp;Humidity;BMP_temperature;BMP_pressure;BME280_temperature;BME280_humidity;BME280_pressure;Samples;Min_cycle;Max_cycle;Signal;HPM_P1;HPM_P2
2022/07/16 00:03:08;;;;;;;5.07;3.88;;;18.50;99.90;;;;;;4977104;28;20204;-79
2022/07/16 00:05:36;;;;;;;5.15;4.10;;;18.60;99.90;;;;;;4977210;28;20204;-79
2022/07/16 00:08:03;;;;;;;5.32;3.75;;;18.60;99.80;;;;;;4960193;28;20224;-78
2022/07/16 00:10:32;;;;;;;5.25;4.03;;;18.50;99.90;;;;;;4959194;28;20208;-78
2022/07/16 00:13:02;;;;;;;4.80;3.65;;;18.40;99.90;;;;;;4966854;28;20201;-78
2022/07/16 00:15:30;;;;;;;4.90;3.70;;;18.40;99.90;;;;;;4974806;28;20205;-77
2022/07/16 00:20:39;;;;;;;6.13;4.03;;;18.50;99.90;;;;;;4945398;29;20676;-78
2022/07/16 00:23:07;;;;;;;7.45;4.18;;;18.40;99.90;;;;;;4950073;28;20201;-78
2022/07/16 00:25:36;;;;;;;4.50;3.67;;;18.40;99.90;;;;;;4960238;28;20563;-79
2022/07/16 00:28:04;;;;;;;4.55;3.60;;;18.40;99.90;;;;;;4959865;28;20244;-78
2022/07/16 00:30:32;;;;;;;5.07;3.88;;;18.40;99.90;;;;;;4959439;28;20201;-78
2022/07/16 00:32:59;;;;;;;5.40;3.90;;;18.50;99.90;;;;;;4959490;28;20197;-78
2022/07/16 00:35:27;;;;;;;3.63;3.33;;;18.50;99.90;;;;;;4976711;28;20197;-78
2022/07/16 00:37:55;;;;;;;3.90;3.50;;;18.30;99.90;;;;;;4975653;28;20231;-78
2022/07/16 00:40:23;;;;;;;5.85;3.80;;;18.10;99.90;;;;;;4958846;28;20209;-78
2022/07/16 00:42:51;;;;;;;5.85;3.45;;;18.00;99.90;;;;;;4958412;28;20228;-78
2022/07/16 00:45:19;;;;;;;4.65;3.60;;;18.00;99.90;;;;;;4951678;28;20540;-78
2022/07/16 00:47:46;;;;;;;5.00;3.78;;;18.00;99.90;;;;;;4967617;28;20212;-78
2022/07/16 00:50:14;;;;;;;7.70;3.47;;;18.00;99.90;;;;;;4961356;28;20234;-78
2022/07/16 00:52:41;;;;;;;4.60;3.58;;;18.20;99.90;;;;;;4959398;28;20205;-78
2022/07/16 00:55:09;;;;;;;3.88;3.45;;;18.10;99.90;;;;;;4959308;28;20694;-78
2022/07/16 00:57:37;;;;;;;6.85;3.60;;;18.10;99.90;;;;;;4958207;28;20240;-79
2022/07/16 01:00:08;;;;;;;7.07;3.38;;;18.20;99.90;;;;;;4958216;28;20197;-78
2022/07/16 01:02:36;;;;;;;4.68;3.55;;;18.20;99.90;;;;;;4973498;28;20205;-78
2022/07/16 01:05:04;;;;;;;5.07;3.65;;;18.20;99.90;;;;;;4950366;29;20197;-78
2022/07/16 01:07:32;;;;;;;4.38;3.17;;;18.20;99.90;;;;;;4955648;28;20225;-79
2022/07/16 01:10:02;;;;;;;7.10;3.65;;;18.20;99.90;;;;;;4958721;28;20208;-78
2022/07/16 01:12:30;;;;;;;4.78;3.20;;;18.20;99.90;;;;;;4975259;28;20189;-77
2022/07/16 01:14:58;;;;;;;5.45;3.47;;;18.10;99.90;;;;;;4958487;28;20205;-78
2022/07/16 01:17:27;;;;;;;6.05;3.88;;;18.00;99.90;;;;;;4972082;28;20225;-78
2022/07/16 01:19:55;;;;;;;6.57;3.55;;;17.90;99.90;;;;;;4975598;28;20197;-78
2022/07/16 01:22:25;;;;;;;5.28;3.75;;;18.00;99.90;;;;;;4990629;28;20608;-78
2022/07/16 01:24:54;;;;;;;5.10;3.33;;;18.00;99.90;;;;;;4964482;28;20228;-78
2022/07/16 01:27:21;;;;;;;7.22;3.53;;;18.00;99.90;;;;;;4970956;28;20225;-78
2022/07/16 01:29:49;;;;;;;5.25;3.67;;;18.00;99.90;;;;;;4956443;28;20574;-78
2022/07/16 01:32:16;;;;;;;4.97;3.55;;;18.00;99.90;;;;;;4958071;28;20578;-78
2022/07/16 01:34:44;;;;;;;6.22;3.58;;;17.90;99.90;;;;;;4956753;28;20217;-78
2022/07/16 01:37:14;;;;;;;4.03;3.20;;;17.90;99.90;;;;;;4972502;28;20220;-78
2022/07/16 01:39:42;;;;;;;6.18;3.00;;;18.00;99.90;;;;;;4951973;29;20554;-78
2022/07/16 01:42:11;;;;;;;4.57;3.15;;;18.00;99.90;;;;;;4957622;28;20239;-78
2022/07/16 01:44:39;;;;;;;3.40;3.10;;;18.00;99.90;;;;;;4957801;28;20209;-79
2022/07/16 01:47:08;;;;;;;3.60;3.17;;;18.10;99.90;;;;;;4974987;28;20217;-78
2022/07/16 01:49:37;;;;;;;7.80;3.40;;;18.10;99.90;;;;;;4975572;28;20547;-78
2022/07/16 01:52:07;;;;;;;4.68;3.10;;;18.20;99.90;;;;;;4973464;28;20205;-78
2022/07/16 01:54:35;;;;;;;5.63;3.40;;;18.00;99.90;;;;;;4957005;28;20200;-78
2022/07/16 01:57:02;;;;;;;4.78;3.58;;;17.90;99.90;;;;;;4961390;28;20232;-78
2022/07/16 01:59:31;;;;;;;6.38;3.30;;;17.80;99.90;;;;;;4957614;28;20204;-78
2022/07/16 02:01:59;;;;;;;7.82;3.72;;;18.00;99.90;;;;;;4957081;28;20220;-78
2022/07/16 02:04:26;;;;;;;5.90;4.10;;;17.90;99.90;;;;;;4968453;28;20201;-78
2022/07/16 02:06:54;;;;;;;5.53;3.20;;;17.90;99.90;;;;;;4974501;28;20224;-77
2022/07/16 02:09:21;;;;;;;5.70;3.72;;;18.00;99.90;;;;;;4977851;28;20201;-79
2022/07/16 02:11:48;;;;;;;5.40;3.80;;;18.10;99.90;;;;;;4957335;28;20216;-79
2022/07/16 02:14:16;;;;;;;4.57;3.30;;;17.90;99.90;;;;;;4974436;28;20216;-77
2022/07/16 02:16:45;;;;;;;5.28;3.03;;;17.80;99.90;;;;;;4974741;28;20225;-78
2022/07/16 02:19:13;;;;;;;7.25;3.33;;;17.90;99.90;;;;;;4957185;28;20205;-79
2022/07/16 02:21:40;;;;;;;5.00;3.42;;;17.80;99.90;;;;;;4957109;28;20208;-78
2022/07/16 02:24:08;;;;;;;6.30;3.42;;;17.90;99.90;;;;;;4957286;28;20224;-78
2022/07/16 02:26:36;;;;;;;6.55;3.35;;;17.90;99.90;;;;;;4973938;28;20220;-78
2022/07/16 02:29:03;;;;;;;7.68;3.17;;;17.90;99.90;;;;;;4974096;28;20201;-78
2022/07/16 02:31:31;;;;;;;6.95;3.58;;;17.90;99.90;;;;;;4972708;28;20208;-77
2022/07/16 02:34:00;;;;;;;3.63;3.10;;;17.90;99.90;;;;;;4973057;28;20675;-77
2022/07/16 02:36:28;;;;;;;3.97;3.15;;;17.90;99.90;;;;;;4949768;28;20217;-77
2022/07/16 02:38:56;;;;;;;5.88;3.50;;;17.90;99.90;;;;;;4964725;28;20208;-77
2022/07/16 02:41:25;;;;;;;5.70;3.47;;;17.80;99.90;;;;;;4956486;28;20201;-77
2022/07/16 02:43:52;;;;;;;4.10;3.45;;;17.90;99.90;;;;;;4956758;28;20688;-78
2022/07/16 02:46:19;;;;;;;4.65;2.92;;;18.00;99.90;;;;;;4969230;28;20226;-78
2022/07/16 02:48:47;;;;;;;5.28;3.28;;;18.00;99.90;;;;;;4958017;28;20212;-78
2022/07/16 02:51:16;;;;;;;3.95;2.97;;;18.10;99.90;;;;;;4951789;28;20209;-78
2022/07/16 02:53:43;;;;;;;6.13;3.60;;;18.00;99.90;;;;;;4964222;28;20197;-78
2022/07/16 02:56:11;;;;;;;5.47;2.92;;;18.00;99.90;;;;;;4972132;28;20216;-78
2022/07/16 02:59:04;;;;;;;3.75;3.30;;;17.90;99.90;;;;;;4956884;28;20211;-78
2022/07/16 03:01:31;;;;;;;5.65;3.17;;;17.80;99.90;;;;;;4956844;28;20682;-78
2022/07/16 03:03:59;;;;;;;5.15;3.35;;;17.80;99.90;;;;;;4956150;28;20213;-79
2022/07/16 03:06:28;;;;;;;4.80;3.22;;;17.80;99.90;;;;;;4963220;28;20236;-78
2022/07/16 03:08:55;;;;;;;3.60;3.08;;;17.80;99.90;;;;;;4956551;28;20201;-78
2022/07/16 03:11:23;;;;;;;6.43;3.53;;;17.80;99.90;;;;;;4983259;28;20204;-78
2022/07/16 03:13:50;;;;;;;4.90;3.00;;;17.70;99.90;;;;;;4994841;28;20570;-78
2022/07/16 03:16:17;;;;;;;3.88;3.15;;;17.80;99.90;;;;;;4979711;28;20213;-78
2022/07/16 03:18:45;;;;;;;7.25;3.80;;;17.70;99.90;;;;;;4980353;28;20192;-78
2022/07/16 03:21:12;;;;;;;5.97;3.30;;;17.80;99.90;;;;;;4979525;28;20197;-78
2022/07/16 03:23:41;;;;;;;4.95;3.20;;;17.70;99.90;;;;;;4962898;28;20216;-78
2022/07/16 03:26:09;;;;;;;5.45;3.20;;;17.70;99.90;;;;;;4962743;28;20227;-78
2022/07/16 03:28:37;;;;;;;5.13;3.33;;;17.70;99.90;;;;;;4962307;28;20201;-78
2022/07/16 03:31:05;;;;;;;3.78;3.00;;;17.70;99.90;;;;;;4955375;28;20686;-77
2022/07/16 03:33:33;;;;;;;5.80;3.00;;;17.70;99.90;;;;;;4979374;28;20197;-77
2022/07/16 03:36:00;;;;;;;4.80;3.42;;;17.80;99.90;;;;;;4962691;28;20212;-78
2022/07/16 03:41:15;;;;;;;4.65;3.28;;;17.70;99.90;;;;;;4977454;28;20189;-78
2022/07/16 03:43:42;;;;;;;5.88;2.92;;;17.80;99.90;;;;;;4954386;28;20212;-79
2022/07/16 03:46:12;;;;;;;4.60;3.10;;;17.70;99.90;;;;;;4977321;28;20228;-77
2022/07/16 03:49:02;;;;;;;5.50;3.35;;;17.70;99.90;;;;;;4973468;28;20591;-78
2022/07/16 03:51:30;;;;;;;7.25;3.33;;;17.60;99.90;;;;;;4962899;28;20203;-77
2022/07/16 03:53:58;;;;;;;8.40;3.55;;;17.60;99.90;;;;;;4982158;28;20178;-77
2022/07/16 03:56:27;;;;;;;3.58;2.70;;;17.70;99.90;;;;;;4963938;28;20232;-77
2022/07/16 03:58:55;;;;;;;4.88;3.10;;;17.70;99.90;;;;;;4969713;28;20212;-77
2022/07/16 04:01:22;;;;;;;4.55;3.13;;;17.70;99.90;;;;;;4986336;28;20205;-82
2022/07/16 04:03:50;;;;;;;5.07;2.97;;;17.70;99.90;;;;;;4983513;28;20209;-82
2022/07/16 04:06:18;;;;;;;5.38;2.92;;;17.80;99.90;;;;;;4964490;28;20232;-82
2022/07/16 04:08:45;;;;;;;4.43;2.95;;;17.70;99.90;;;;;;4950070;28;20205;-82
2022/07/16 04:11:13;;;;;;;5.03;2.78;;;17.70;99.90;;;;;;4979010;28;20208;-81
2022/07/16 04:13:42;;;;;;;5.22;2.97;;;17.70;99.90;;;;;;4964570;28;20216;-82
2022/07/16 04:16:10;;;;;;;5.15;2.72;;;17.50;99.90;;;;;;4979873;28;20225;-82
2022/07/16 04:18:37;;;;;;;6.93;3.10;;;17.60;99.90;;;;;;4962448;28;20219;-82
2022/07/16 04:21:06;;;;;;;3.53;2.53;;;17.70;99.90;;;;;;4977745;28;20212;-82
2022/07/16 04:23:34;;;;;;;4.03;2.72;;;17.80;99.90;;;;;;4977847;28;20217;-82
2022/07/16 04:26:01;;;;;;;4.50;2.70;;;17.80;99.90;;;;;;4959816;28;20197;-81
2022/07/16 04:28:29;;;;;;;3.92;2.85;;;17.80;99.90;;;;;;4961516;28;20205;-82
2022/07/16 04:30:58;;;;;;;5.00;3.00;;;17.80;99.90;;;;;;4978940;28;20197;-81
2022/07/16 04:33:25;;;;;;;6.15;2.90;;;17.70;99.90;;;;;;4977463;28;20193;-81
2022/07/16 04:35:53;;;;;;;3.90;2.72;;;17.50;99.90;;;;;;4959546;28;20205;-81
2022/07/16 04:38:21;;;;;;;4.30;3.05;;;17.60;99.90;;;;;;4958341;28;20205;-81
2022/07/16 04:40:48;;;;;;;3.95;3.05;;;17.60;99.90;;;;;;4968396;28;20201;-80
2022/07/16 04:43:16;;;;;;;4.25;2.88;;;17.50;99.90;;;;;;4960454;28;20216;-81
2022/07/16 04:45:43;;;;;;;3.13;2.58;;;17.40;99.90;;;;;;4960307;28;20217;-81
2022/07/16 04:48:12;;;;;;;2.63;2.42;;;17.40;99.90;;;;;;4960718;28;20714;-81
2022/07/16 04:50:39;;;;;;;2.95;2.30;;;17.50;99.90;;;;;;4956241;28;20202;-83
2022/07/16 04:53:07;;;;;;;4.50;3.20;;;17.70;99.90;;;;;;4960285;28;20197;-82
2022/07/16 04:55:34;;;;;;;4.00;2.65;;;17.70;99.90;;;;;;4956490;28;20206;-82
2022/07/16 04:58:02;;;;;;;2.50;2.30;;;17.80;99.90;;;;;;4954420;28;20233;-82
2022/07/16 05:00:29;;;;;;;5.57;2.88;;;17.80;99.90;;;;;;4960973;28;20205;-82
2022/07/16 05:02:59;;;;;;;3.63;2.60;;;18.40;99.90;;;;;;4959696;28;20197;-83
2022/07/16 05:05:30;;;;;;;4.15;2.33;;;18.50;99.90;;;;;;4959336;28;20220;-82
2022/07/16 05:07:58;;;;;;;4.63;2.78;;;18.20;99.90;;;;;;4970410;28;20213;-82
2022/07/16 05:10:26;;;;;;;4.50;3.00;;;18.10;99.90;;;;;;4975225;28;20667;-82
2022/07/16 05:12:53;;;;;;;4.68;2.83;;;18.10;99.90;;;;;;4959113;28;20556;-83
2022/07/16 05:15:21;;;;;;;3.92;2.97;;;18.30;99.90;;;;;;4977095;28;20201;-82
2022/07/16 05:17:49;;;;;;;4.57;2.40;;;18.40;99.90;;;;;;4976718;28;20223;-83
2022/07/16 05:20:17;;;;;;;3.42;2.70;;;18.60;99.90;;;;;;4971035;28;20287;-82
2022/07/16 05:22:46;;;;;;;4.82;2.88;;;19.00;99.90;;;;;;4971408;28;20210;-83
2022/07/16 05:25:15;;;;;;;4.82;2.90;;;19.10;99.90;;;;;;4969752;28;20228;-83
2022/07/16 05:27:43;;;;;;;5.40;3.30;;;19.10;99.90;;;;;;4967962;28;20225;-83
2022/07/16 05:30:10;;;;;;;3.83;3.45;;;19.10;99.90;;;;;;4958742;28;20212;-83
2022/07/16 05:32:38;;;;;;;4.60;3.35;;;19.10;99.90;;;;;;4976700;28;20190;-82
2022/07/16 05:35:06;;;;;;;5.47;3.22;;;19.20;99.90;;;;;;4974745;28;20197;-82
2022/07/16 05:37:34;;;;;;;6.05;3.58;;;19.20;99.90;;;;;;4958814;28;20221;-82
2022/07/16 05:40:04;;;;;;;5.05;3.95;;;19.30;99.90;;;;;;4957705;28;20687;-82
2022/07/16 05:42:31;;;;;;;4.40;3.63;;;19.30;99.90;;;;;;4973950;28;20193;-82
2022/07/16 05:44:59;;;;;;;7.53;4.53;;;19.20;99.90;;;;;;4960484;28;20213;-82
2022/07/16 05:47:26;;;;;;;5.32;3.97;;;19.30;99.90;;;;;;4975971;28;20221;-82
2022/07/16 05:49:54;;;;;;;4.65;3.63;;;19.30;99.90;;;;;;4953551;28;20200;-83
2022/07/16 05:52:21;;;;;;;4.40;3.75;;;19.40;99.90;;;;;;4958882;28;20219;-82
2022/07/16 05:54:49;;;;;;;5.57;4.30;;;19.40;99.90;;;;;;4968053;28;20201;-83
2022/07/16 05:57:18;;;;;;;5.20;3.75;;;19.40;99.90;;;;;;4971562;28;20726;-82
2022/07/16 05:59:46;;;;;;;4.45;3.78;;;19.50;99.90;;;;;;4958883;28;20606;-83
2022/07/16 06:02:14;;;;;;;7.15;3.92;;;19.50;99.90;;;;;;4958868;28;20205;-83
2022/07/16 06:04:42;;;;;;;4.60;4.15;;;19.40;99.90;;;;;;4976169;28;20210;-83
2022/07/16 06:07:09;;;;;;;5.28;3.75;;;19.40;99.90;;;;;;4957993;28;20225;-83
2022/07/16 06:09:37;;;;;;;6.38;4.30;;;19.40;99.90;;;;;;4961151;28;20205;-83
2022/07/16 06:12:05;;;;;;;6.30;4.00;;;19.40;99.90;;;;;;4959908;28;20545;-83
2022/07/16 06:14:34;;;;;;;4.47;3.97;;;19.40;99.90;;;;;;4975053;28;20206;-83
2022/07/16 06:17:01;;;;;;;4.15;3.65;;;19.40;99.90;;;;;;4957262;28;20229;-82
2022/07/16 06:19:29;;;;;;;5.45;4.25;;;19.20;99.90;;;;;;4957508;28;20216;-83
2022/07/16 06:21:56;;;;;;;5.82;4.00;;;19.20;99.90;;;;;;4975854;28;21071;-83
2022/07/16 06:24:24;;;;;;;4.47;3.58;;;19.20;99.90;;;;;;4970560;28;20225;-82
2022/07/16 06:26:51;;;;;;;3.75;3.38;;;19.20;99.90;;;;;;4958068;28;20220;-83
2022/07/16 06:29:19;;;;;;;4.97;2.78;;;19.30;99.90;;;;;;4956501;28;20219;-83
2022/07/16 06:31:58;;;;;;;5.32;3.05;;;19.30;99.90;;;;;;4957150;28;20690;-83
2022/07/16 06:34:25;;;;;;;4.43;3.50;;;19.40;99.90;;;;;;4955511;28;20194;-83
2022/07/16 06:36:53;;;;;;;3.75;3.38;;;19.50;99.90;;;;;;4954834;28;20221;-82
2022/07/16 06:39:20;;;;;;;4.90;3.35;;;19.30;99.90;;;;;;4971948;28;20205;-82
2022/07/16 06:41:48;;;;;;;4.43;3.58;;;19.30;99.90;;;;;;4956683;28;20200;-82
2022/07/16 06:44:15;;;;;;;4.80;3.25;;;19.30;99.90;;;;;;4974493;28;20220;-82
2022/07/16 06:46:43;;;;;;;3.65;3.08;;;19.30;99.90;;;;;;4975624;28;20212;-83
2022/07/16 06:49:11;;;;;;;4.32;3.33;;;19.40;99.90;;;;;;4974455;28;20220;-83
2022/07/16 06:51:39;;;;;;;3.85;3.50;;;19.40;99.90;;;;;;4972102;28;20566;-80
2022/07/16 06:54:07;;;;;;;3.70;3.40;;;19.30;99.90;;;;;;4957056;28;20209;-81
2022/07/16 06:56:34;;;;;;;3.53;2.65;;;19.50;99.90;;;;;;4976068;28;20221;-80
2022/07/16 06:59:02;;;;;;;3.00;2.08;;;19.60;99.90;;;;;;4957113;28;20214;-80
2022/07/16 07:01:29;;;;;;;3.88;1.80;;;19.60;99.90;;;;;;4957545;28;20212;-81
2022/07/16 07:03:57;;;;;;;1.83;1.55;;;19.50;99.90;;;;;;4958376;28;20208;-81
2022/07/16 07:06:26;;;;;;;1.60;1.30;;;19.50;99.90;;;;;;4976847;28;20205;-81
2022/07/16 07:08:53;;;;;;;2.35;1.15;;;19.40;99.90;;;;;;4948296;28;20205;-81
2022/07/16 07:11:21;;;;;;;0.95;0.90;;;19.30;99.90;;;;;;4968026;28;20274;-80
2022/07/16 07:13:48;;;;;;;2.58;1.50;;;19.30;99.90;;;;;;4958002;28;20209;-80
2022/07/16 07:16:16;;;;;;;1.85;1.30;;;19.40;99.90;;;;;;4976521;28;20212;-80
2022/07/16 07:18:43;;;;;;;2.80;1.10;;;19.60;99.90;;;;;;4976605;28;20189;-80
2022/07/16 07:21:11;;;;;;;1.42;1.17;;;19.50;99.60;;;;;;4960311;28;20197;-83
2022/07/16 07:23:40;;;;;;;1.45;1.13;;;19.60;98.90;;;;;;4958756;28;20197;-82
2022/07/16 07:26:18;;;;;;;2.80;1.20;;;19.50;98.60;;;;;;4959140;28;20217;-83
2022/07/16 07:28:46;;;;;;;2.13;1.05;;;19.50;98.50;;;;;;4969852;28;20208;-83
2022/07/16 07:31:13;;;;;;;1.85;1.40;;;19.60;98.60;;;;;;4959458;28;20207;-83
2022/07/16 07:33:41;;;;;;;2.28;1.30;;;19.80;98.70;;;;;;4958623;28;20201;-83
2022/07/16 07:36:08;;;;;;;2.05;1.10;;;19.80;98.90;;;;;;4975286;28;20727;-84
2022/07/16 07:38:36;;;;;;;1.60;0.80;;;19.80;98.10;;;;;;4972114;28;20194;-84
2022/07/16 07:41:05;;;;;;;2.08;0.90;;;19.80;97.10;;;;;;4974016;28;20205;-83
2022/07/16 07:43:36;;;;;;;1.48;0.98;;;19.80;96.80;;;;;;4972692;28;20212;-83
2022/07/16 07:46:03;;;;;;;1.10;0.75;;;20.00;96.20;;;;;;4975548;28;20224;-84
2022/07/16 07:48:31;;;;;;;2.72;1.20;;;20.10;94.70;;;;;;4964135;28;20687;-83
2022/07/16 07:50:58;;;;;;;1.88;0.93;;;20.40;94.50;;;;;;4957064;28;20656;-83
2022/07/16 07:53:26;;;;;;;2.33;1.00;;;20.40;94.40;;;;;;4955861;28;20212;-83
2022/07/16 07:55:53;;;;;;;1.98;1.27;;;20.40;94.20;;;;;;4963199;28;20197;-83
2022/07/16 07:58:22;;;;;;;1.50;1.40;;;20.50;94.30;;;;;;4961499;28;20205;-83
2022/07/16 08:00:51;;;;;;;2.17;1.35;;;20.50;94.60;;;;;;4960474;28;20205;-83
2022/07/16 08:03:18;;;;;;;3.30;1.88;;;20.50;94.80;;;;;;4980481;28;20197;-83
2022/07/16 08:05:46;;;;;;;1.92;1.38;;;20.60;95.20;;;;;;4963189;28;20213;-83
2022/07/16 08:08:14;;;;;;;2.13;1.65;;;20.60;95.40;;;;;;4960498;28;20221;-83
2022/07/16 08:10:42;;;;;;;3.15;1.45;;;20.40;96.00;;;;;;4975139;28;20682;-83
2022/07/16 08:13:09;;;;;;;1.80;1.20;;;20.50;96.20;;;;;;4976077;28;20213;-83
2022/07/16 08:15:38;;;;;;;2.00;1.80;;;20.20;94.50;;;;;;4961628;28;20193;-83
2022/07/16 08:18:06;;;;;;;2.40;1.08;;;20.20;94.10;;;;;;4977160;28;20301;-83
2022/07/16 08:20:33;;;;;;;2.95;1.40;;;20.40;93.60;;;;;;4962953;28;20216;-83
2022/07/16 08:23:01;;;;;;;2.22;1.60;;;20.40;92.70;;;;;;4954566;28;20197;-83
2022/07/16 08:25:46;;;;;;;2.30;1.60;;;20.40;92.70;;;;;;4962266;28;20220;-81
2022/07/16 08:28:14;;;;;;;2.53;1.50;;;20.40;92.90;;;;;;4978214;28;20212;-83
2022/07/16 08:30:44;;;;;;;3.55;1.40;;;20.60;92.50;;;;;;4963103;28;20197;-83
2022/07/16 08:33:11;;;;;;;2.60;1.00;;;20.60;92.60;;;;;;4961942;28;20205;-83
2022/07/16 08:35:38;;;;;;;2.63;1.20;;;20.40;91.90;;;;;;4953914;28;20235;-82
2022/07/16 08:38:06;;;;;;;2.72;1.20;;;20.40;91.40;;;;;;4977127;28;20224;-82
2022/07/16 08:40:34;;;;;;;1.83;1.15;;;20.20;91.60;;;;;;4973205;28;20216;-83
2022/07/16 08:43:10;;;;;;;1.50;1.10;;;20.20;92.00;;;;;;4978332;28;20200;-82
2022/07/16 08:45:38;;;;;;;2.22;0.98;;;20.10;92.10;;;;;;4976569;28;20212;-82
2022/07/16 08:48:08;;;;;;;4.65;1.25;;;20.10;92.70;;;;;;4978344;28;20221;-82
2022/07/16 08:50:36;;;;;;;4.22;1.30;;;20.30;92.70;;;;;;4978442;28;20698;-82
2022/07/16 08:53:05;;;;;;;1.67;1.38;;;20.60;92.40;;;;;;4969199;28;20205;-82
2022/07/16 08:55:34;;;;;;;2.42;1.35;;;20.40;92.60;;;;;;4966895;28;20209;-82
2022/07/16 08:58:01;;;;;;;1.55;1.27;;;20.10;92.20;;;;;;4961344;28;20233;-82
2022/07/16 09:00:29;;;;;;;1.35;1.00;;;20.10;91.90;;;;;;4960522;28;20201;-82
2022/07/16 09:02:57;;;;;;;1.45;1.00;;;20.20;91.70;;;;;;4982406;28;20197;-82
2022/07/16 09:05:26;;;;;;;4.13;1.23;;;20.60;91.60;;;;;;4956934;28;20225;-82
2022/07/16 09:07:54;;;;;;;1.95;1.30;;;20.60;91.40;;;;;;4973740;28;20220;-82
2022/07/16 09:10:22;;;;;;;2.13;1.20;;;20.50;92.00;;;;;;4961239;28;20212;-82
2022/07/16 09:12:50;;;;;;;2.72;1.33;;;20.90;91.90;;;;;;4978027;28;20205;-82
2022/07/16 09:15:26;;;;;;;1.92;0.93;;;20.80;90.50;;;;;;4961144;28;20200;-83
2022/07/16 09:18:18;;;;;;;3.80;1.25;;;20.60;90.60;;;;;;4951244;28;20221;-83
2022/07/16 09:20:53;;;;;;;1.92;1.25;;;21.00;90.90;;;;;;4958716;29;20197;-83
2022/07/16 09:23:24;;;;;;;3.55;1.48;;;20.60;90.10;;;;;;4941948;29;20201;-83
2022/07/16 09:25:54;;;;;;;2.65;1.10;;;20.10;90.90;;;;;;4941048;28;20225;-82
2022/07/16 09:28:23;;;;;;;2.72;1.30;;;20.10;91.30;;;;;;4956184;28;20205;-83
2022/07/16 09:30:51;;;;;;;3.95;1.30;;;20.40;91.00;;;;;;4961185;28;20676;-83
2022/07/16 09:33:21;;;;;;;2.90;1.38;;;20.40;90.00;;;;;;4960307;28;20200;-83
2022/07/16 09:36:05;;;;;;;3.45;1.33;;;20.50;89.90;;;;;;4960003;28;20203;-83
2022/07/16 09:38:47;;;;;;;3.55;1.90;;;20.50;90.00;;;;;;4960099;28;20215;-83
2022/07/16 09:41:15;;;;;;;2.08;1.27;;;20.50;90.00;;;;;;4960149;28;20212;-83
2022/07/16 09:43:43;;;;;;;1.65;1.55;;;20.40;90.20;;;;;;4978005;28;20200;-83
2022/07/16 09:46:16;;;;;;;1.60;0.98;;;20.60;90.30;;;;;;4960326;28;20232;-83
2022/07/16 09:48:45;;;;;;;2.97;1.60;;;20.50;90.20;;;;;;4961193;28;20212;-83
2022/07/16 09:51:20;;;;;;;1.50;1.40;;;20.30;90.00;;;;;;4960300;28;20208;-83
2022/07/16 09:53:48;;;;;;;2.22;1.00;;;20.40;90.40;;;;;;4960418;28;20204;-83
2022/07/16 09:56:18;;;;;;;1.73;1.30;;;20.60;90.10;;;;;;4960074;28;20228;-83
2022/07/16 09:58:51;;;;;;;2.05;1.17;;;20.70;90.10;;;;;;4975902;28;20216;-83
2022/07/16 10:01:20;;;;;;;2.85;1.23;;;20.70;89.70;;;;;;4943588;28;20207;-83
2022/07/16 10:03:50;;;;;;;3.05;1.38;;;20.60;89.50;;;;;;4976305;28;20210;-83
2022/07/16 10:06:19;;;;;;;1.70;1.05;;;20.70;89.70;;;;;;4976097;28;20229;-83
2022/07/16 10:08:47;;;;;;;2.00;1.00;;;20.70;88.60;;;;;;4959175;28;20572;-83
2022/07/16 10:11:15;;;;;;;3.13;0.95;;;20.70;87.80;;;;;;4959876;28;20201;-83
2022/07/16 10:13:47;;;;;;;2.97;1.25;;;20.90;88.30;;;;;;4959339;28;20201;-83
2022/07/16 10:16:14;;;;;;;1.20;1.00;;;21.20;87.70;;;;;;4955427;28;20225;-83
2022/07/16 10:18:44;;;;;;;2.45;1.00;;;21.20;86.50;;;;;;4940731;29;20209;-83
2022/07/16 10:21:15;;;;;;;1.25;0.82;;;21.00;85.10;;;;;;4939602;28;20665;-83
2022/07/16 10:23:45;;;;;;;1.88;0.90;;;20.70;85.10;;;;;;4956973;29;20201;-83
2022/07/16 10:26:17;;;;;;;1.35;1.00;;;20.70;85.20;;;;;;4967161;28;20229;-83
2022/07/16 10:28:47;;;;;;;1.42;1.00;;;20.90;83.90;;;;;;4976791;28;20209;-83
2022/07/16 10:31:32;;;;;;;1.90;1.00;;;20.70;77.60;;;;;;4959464;28;20201;-83
2022/07/16 10:34:36;;;;;;;2.65;1.05;;;21.10;78.90;;;;;;4976162;28;20205;-83
2022/07/16 10:37:06;;;;;;;0.98;0.60;;;21.00;80.30;;;;;;4956054;28;20246;-83
2022/07/16 10:39:35;;;;;;;3.50;1.00;;;21.40;80.60;;;;;;4955880;29;20210;-83
2022/07/16 10:42:06;;;;;;;1.88;1.23;;;21.50;79.40;;;;;;4955298;29;20198;-83
2022/07/16 10:44:45;;;;;;;2.70;1.00;;;21.60;79.80;;;;;;4956237;29;20205;-83
2022/07/16 10:47:13;;;;;;;1.52;0.70;;;21.70;79.00;;;;;;4973305;28;20580;-83
2022/07/16 10:49:41;;;;;;;1.35;0.80;;;21.50;79.00;;;;;;4959464;28;20217;-83
2022/07/16 10:52:11;;;;;;;2.42;1.08;;;21.40;79.80;;;;;;4959123;28;20205;-83
2022/07/16 10:54:40;;;;;;;1.40;0.93;;;21.10;81.30;;;;;;4975198;28;20201;-83
2022/07/16 10:57:09;;;;;;;4.65;1.00;;;21.20;81.70;;;;;;4958492;28;20235;-83
2022/07/16 10:59:38;;;;;;;3.42;1.35;;;21.10;80.80;;;;;;4956103;28;20213;-83
2022/07/16 11:02:08;;;;;;;2.20;1.00;;;20.80;81.00;;;;;;4956430;29;20209;-83
2022/07/16 11:04:38;;;;;;;2.88;1.38;;;20.60;80.80;;;;;;4957186;28;20579;-83
2022/07/16 11:07:11;;;;;;;2.17;1.08;;;20.50;81.60;;;;;;4956799;28;20228;-83
2022/07/16 11:09:41;;;;;;;2.75;0.98;;;20.80;81.30;;;;;;4958691;28;20212;-83
2022/07/16 11:12:17;;;;;;;1.95;1.00;;;21.10;78.80;;;;;;4956817;28;20197;-84
2022/07/16 11:14:48;;;;;;;1.85;1.00;;;21.20;77.10;;;;;;4975771;28;20208;-83
2022/07/16 11:17:16;;;;;;;2.25;1.10;;;21.10;78.80;;;;;;4959132;28;20225;-83
2022/07/16 11:19:48;;;;;;;3.10;1.27;;;21.40;78.90;;;;;;4976817;28;20224;-84
2022/07/16 11:22:17;;;;;;;2.30;0.90;;;21.60;78.40;;;;;;4959530;28;20549;-83
2022/07/16 11:24:49;;;;;;;2.70;0.80;;;21.00;76.70;;;;;;4976830;28;20193;-84
2022/07/16 11:27:17;;;;;;;3.47;1.25;;;21.00;77.50;;;;;;4980740;28;20212;-83
2022/07/16 11:29:44;;;;;;;2.42;0.88;;;21.20;76.60;;;;;;4962833;28;20202;-83
2022/07/16 11:32:22;;;;;;;2.55;1.42;;;21.50;74.50;;;;;;4965090;28;20678;-80
2022/07/16 11:34:49;;;;;;;1.52;1.00;;;21.90;73.60;;;;;;4962372;28;20208;-80
2022/07/16 11:37:17;;;;;;;1.73;0.80;;;22.00;71.80;;;;;;4979417;28;20217;-80
2022/07/16 11:39:46;;;;;;;2.47;1.35;;;22.00;68.90;;;;;;4963863;28;20211;-80
2022/07/16 11:42:14;;;;;;;1.25;0.80;;;21.80;68.60;;;;;;4963243;28;20201;-80
2022/07/16 11:44:42;;;;;;;1.52;0.82;;;21.90;66.90;;;;;;4964002;28;20196;-80
2022/07/16 11:47:11;;;;;;;2.40;1.00;;;21.90;66.80;;;;;;4976332;28;20232;-79
2022/07/16 11:49:40;;;;;;;3.60;0.90;;;22.10;66.50;;;;;;4963950;28;20205;-79
2022/07/16 11:52:10;;;;;;;3.97;0.95;;;22.10;67.60;;;;;;4980236;28;20664;-79
2022/07/16 11:54:40;;;;;;;2.65;0.90;;;22.10;66.80;;;;;;4984806;28;20200;-79
2022/07/16 11:57:11;;;;;;;1.63;0.77;;;22.10;65.70;;;;;;4973645;28;20232;-79
2022/07/16 11:59:47;;;;;;;2.50;0.80;;;22.30;63.20;;;;;;4984044;28;20207;-79
2022/07/16 12:02:17;;;;;;;1.67;0.90;;;22.30;62.60;;;;;;4984774;28;20196;-79
2022/07/16 12:04:46;;;;;;;2.40;0.80;;;22.60;62.80;;;;;;4980977;28;20197;-79
2022/07/16 12:07:16;;;;;;;3.70;1.02;;;22.80;61.70;;;;;;4959432;28;20209;-79
2022/07/16 12:09:45;;;;;;;2.22;0.90;;;23.20;62.10;;;;;;4981708;28;20208;-80
2022/07/16 12:12:16;;;;;;;3.38;0.90;;;22.60;61.40;;;;;;4981740;28;20189;-79
2022/07/16 12:14:53;;;;;;;3.13;1.15;;;22.10;61.90;;;;;;4980615;28;20579;-79
2022/07/16 12:17:26;;;;;;;2.05;0.82;;;22.00;62.50;;;;;;4978373;28;20224;-79
2022/07/16 12:20:09;;;;;;;2.97;0.80;;;22.30;61.30;;;;;;4965968;28;20204;-80
2022/07/16 12:22:48;;;;;;;2.10;1.00;;;22.90;59.60;;;;;;4962110;28;20212;-80
2022/07/16 12:25:17;;;;;;;2.70;1.10;;;23.20;58.80;;;;;;4962278;28;20204;-80
2022/07/16 12:27:49;;;;;;;2.33;0.77;;;23.00;59.20;;;;;;4960325;28;20590;-80
2022/07/16 12:30:17;;;;;;;3.65;0.85;;;22.60;58.30;;;;;;4944593;28;20209;-80
2022/07/16 12:32:52;;;;;;;1.65;0.80;;;22.80;59.20;;;;;;4978331;28;20193;-80
2022/07/16 12:35:48;;;;;;;4.05;1.02;;;23.30;57.20;;;;;;4961893;28;20196;-80
2022/07/16 12:38:38;;;;;;;2.42;0.82;;;23.10;56.60;;;;;;4961730;28;20221;-79
2022/07/16 12:41:08;;;;;;;1.77;0.70;;;23.00;55.50;;;;;;4979033;28;20197;-79
2022/07/16 12:43:37;;;;;;;4.50;1.10;;;23.00;55.20;;;;;;4961775;28;20686;-79
2022/07/16 12:46:05;;;;;;;2.08;1.10;;;23.30;55.20;;;;;;4973608;28;20197;-79
2022/07/16 12:48:40;;;;;;;2.13;1.30;;;23.80;54.80;;;;;;4979119;28;20220;-79
2022/07/16 12:51:08;;;;;;;2.40;0.82;;;23.80;55.30;;;;;;4969969;28;20200;-79
2022/07/16 12:53:35;;;;;;;3.75;1.38;;;23.90;55.00;;;;;;4987010;28;20201;-79
2022/07/16 12:58:49;;;;;;;2.75;0.98;;;23.50;56.50;;;;;;4972052;28;20193;-79
2022/07/16 13:01:29;;;;;;;2.03;0.85;;;23.30;56.10;;;;;;4975950;28;20209;-79
2022/07/16 13:03:56;;;;;;;3.33;1.52;;;22.90;56.90;;;;;;4978064;28;20663;-79
2022/07/16 13:06:25;;;;;;;2.83;0.80;;;23.30;56.70;;;;;;4961328;28;20230;-79
2022/07/16 13:08:52;;;;;;;2.25;1.00;;;24.00;55.90;;;;;;4961020;28;20221;-80